Hauptseite
METAR-TAF:

METAR-TAF

Flughäfen :

Flughafen Engadin

St. Moritz, Schweiz

Breite: 46-32-03N, Länge: 9-53-03E, Höhe: 1707 m

Beobachtung

Neuester Wetterbericht von vor 34 Minuten, um 03:20 UTC
Wind 1 kt aus Süd/Südwest
Temperatur 4°C
Luftfeuchtigkeit 100%
Luftdruck 1025 hPa
Sichtweite 10 km oder mehr
keine Wolken unter 1500 m und keine Kumulonimbus oder Gewitterwolken

METAR: LSZS 160320Z AUTO 20001KT CAVOK 04/04 Q1025

Zeit: 05:54 (03:54 UTC)

Prognose

Neuester Wetterbericht von vor 10 Stunden und 43 Minuten, um 17:11 UTC
Gültige Prognose vom 15 um 17 UTC bis 15 um 24 UTC
Wind 10 kt aus Nordwest
Sichtweite 10 km oder mehr
Aufgelockert bewölkt in der Höhe von 7500 ft
Übergehend zu
vom 15 um 17 UTC bis 15 um 20 UTC
Wind 3 kt aus unterschiedlichen Richtungen

TAF: LSZS 151711Z 1517/1524 31010KT 9999 SCT075 TX17/1516Z BECMG 1517/1520 VRB03KT

Wetterbeobachtungen und Prognosen von mehr als 4000 Flughäfen (METAR und TAF Bericht).

Die verfügbaren Stationen werden durch gelbe und rote Markierungen auf der Karte dargestellt.

Führen Sie die Maus auf sie, um den Namen der Station zu sehen.

Darauf klicken, um die Beobachtung von Wetterbeobachtungen und Prognosen zu sehen.

Um die Karte zu ändern : klicken Sie auf den grünen Tasten mit einem schwarzen Kreuz Zum Vergrößern, auf den grünen Button mit einem Gedankenstrich zu verkleinern, oder auf die grünen Pfeile für benachbarte Karten.


METAR-TAF: